Time;durP1;ratioP1;P1;durP2;ratioP2;P2;SDS_P1;SDS_P2;PMS_P1;PMS_P2;Temp;Humidity;BMP_temperature;BMP_pressure;BME280_temperature;BME280_humidity;BME280_pressure;Samples;Min_cycle;Max_cycle;Signal;HPM_P1;HPM_P2
2023/04/12 00:00:04;;;;;;;7.35;2.97;;;8.90;94.80;;;;;;4999907;28;20406;-74
2023/04/12 00:02:34;;;;;;;10.52;3.42;;;8.90;94.80;;;;;;5004348;28;20049;-74
2023/04/12 00:05:01;;;;;;;9.70;3.05;;;8.90;95.00;;;;;;4997016;28;20057;-74
2023/04/12 00:07:29;;;;;;;8.88;2.92;;;8.90;95.20;;;;;;5005011;28;20046;-74
2023/04/12 00:09:55;;;;;;;10.15;3.38;;;8.80;95.30;;;;;;5001910;28;20105;-74
2023/04/12 00:12:20;;;;;;;10.77;2.72;;;8.80;95.50;;;;;;5001643;28;20048;-74
2023/04/12 00:14:46;;;;;;;13.68;3.40;;;8.80;95.70;;;;;;5000016;28;20394;-74
2023/04/12 00:17:12;;;;;;;8.55;2.95;;;8.80;95.80;;;;;;5006482;28;20045;-73
2023/04/12 00:19:42;;;;;;;9.43;3.22;;;8.90;96.00;;;;;;4999939;28;20054;-74
2023/04/12 00:22:11;;;;;;;11.90;2.95;;;8.90;96.20;;;;;;5002128;28;20050;-74
2023/04/12 00:24:41;;;;;;;10.55;3.38;;;8.90;96.40;;;;;;5001122;28;20118;-74
2023/04/12 00:27:07;;;;;;;11.82;3.20;;;8.90;96.70;;;;;;5004410;28;20575;-74
2023/04/12 00:29:33;;;;;;;9.10;2.95;;;8.90;96.90;;;;;;5013701;28;20045;-74
2023/04/12 00:32:00;;;;;;;10.52;3.17;;;8.90;97.20;;;;;;5010472;28;20095;-74
2023/04/12 00:34:29;;;;;;;8.10;3.33;;;8.80;97.40;;;;;;5005347;28;20086;-74
2023/04/12 00:36:55;;;;;;;9.13;3.03;;;8.90;97.90;;;;;;5000248;28;20053;-74
2023/04/12 00:39:21;;;;;;;11.00;3.58;;;8.90;97.90;;;;;;5002983;28;20132;-74
2023/04/12 00:41:47;;;;;;;9.15;3.33;;;8.80;98.40;;;;;;5005419;28;20046;-74
2023/04/12 00:44:13;;;;;;;12.55;3.50;;;8.90;98.60;;;;;;5004321;28;20056;-74
2023/04/12 00:46:40;;;;;;;9.13;3.00;;;9.00;99.00;;;;;;5009330;28;20050;-74
2023/04/12 00:49:06;;;;;;;14.20;4.15;;;9.00;99.00;;;;;;5004738;28;20409;-74
2023/04/12 00:51:32;;;;;;;10.13;3.30;;;9.00;99.40;;;;;;5002980;28;20058;-74
2023/04/12 00:53:59;;;;;;;13.07;3.33;;;9.00;99.40;;;;;;5004763;28;20049;-71
2023/04/12 00:56:32;;;;;;;13.40;3.80;;;9.00;99.70;;;;;;5002998;28;20414;-72
2023/04/12 00:58:59;;;;;;;10.52;4.03;;;9.00;99.70;;;;;;5007762;28;20145;-73
2023/04/12 01:01:24;;;;;;;9.43;3.58;;;9.00;99.90;;;;;;5005652;28;20128;-73
2023/04/12 01:03:52;;;;;;;11.80;3.38;;;9.00;99.90;;;;;;5007529;28;20589;-72
2023/04/12 01:06:28;;;;;;;11.63;3.63;;;9.00;99.90;;;;;;5001992;28;20046;-72
2023/04/12 01:09:05;;;;;;;11.65;3.97;;;8.90;99.90;;;;;;5003729;28;20058;-73
2023/04/12 01:11:42;;;;;;;10.18;3.70;;;9.00;99.90;;;;;;5004364;28;20472;-72
2023/04/12 01:14:30;;;;;;;11.32;3.40;;;9.00;99.90;;;;;;5008329;28;20155;-72
2023/04/12 01:17:02;;;;;;;11.15;3.33;;;9.10;99.90;;;;;;5003054;28;20103;-73
2023/04/12 01:19:44;;;;;;;11.85;3.53;;;9.00;99.90;;;;;;5008190;28;20405;-72
2023/04/12 01:22:36;;;;;;;14.10;3.80;;;9.00;99.90;;;;;;5004000;28;20076;-72
2023/04/12 01:25:22;;;;;;;11.82;3.92;;;9.00;99.90;;;;;;4999249;28;20658;-73
2023/04/12 01:27:53;;;;;;;14.52;3.65;;;9.00;99.90;;;;;;5005056;28;20077;-72
2023/04/12 01:30:19;;;;;;;13.00;3.90;;;9.00;99.90;;;;;;5008261;28;20048;-72
2023/04/12 01:32:51;;;;;;;10.40;3.20;;;9.00;99.90;;;;;;5009023;28;20501;-72
2023/04/12 01:35:19;;;;;;;11.35;4.05;;;9.00;99.90;;;;;;5007717;28;20409;-72
2023/04/12 01:37:45;;;;;;;11.80;3.60;;;9.00;99.90;;;;;;5001787;28;20100;-72
2023/04/12 01:40:12;;;;;;;8.98;3.80;;;9.10;99.90;;;;;;5001052;28;20100;-73
2023/04/12 01:42:38;;;;;;;9.27;3.30;;;9.00;99.90;;;;;;5003489;28;20382;-72
2023/04/12 01:45:05;;;;;;;11.05;4.03;;;9.00;99.90;;;;;;5004358;28;20080;-72
2023/04/12 01:47:32;;;;;;;11.02;4.20;;;9.00;99.90;;;;;;5006642;28;20034;-72
2023/04/12 01:49:57;;;;;;;8.88;3.75;;;9.00;99.90;;;;;;5006237;28;20046;-72
2023/04/12 01:52:29;;;;;;;12.98;4.15;;;9.00;99.90;;;;;;5008836;28;20091;-73
2023/04/12 01:55:00;;;;;;;12.73;4.18;;;9.10;99.90;;;;;;5003367;28;20057;-73
2023/04/12 01:57:26;;;;;;;13.77;4.60;;;9.00;99.90;;;;;;5000805;28;20057;-72
2023/04/12 01:59:53;;;;;;;11.82;4.35;;;9.00;99.90;;;;;;5002934;28;20049;-72
2023/04/12 02:02:19;;;;;;;13.05;4.45;;;9.00;99.90;;;;;;5003110;28;20124;-72
2023/04/12 02:04:50;;;;;;;11.98;4.43;;;9.10;99.90;;;;;;5006471;28;20091;-72
2023/04/12 02:07:19;;;;;;;14.65;4.57;;;9.10;99.90;;;;;;5005756;28;20108;-72
2023/04/12 02:09:44;;;;;;;10.02;3.72;;;9.10;99.90;;;;;;5020158;28;20051;-72
2023/04/12 02:12:11;;;;;;;12.40;4.57;;;9.00;99.90;;;;;;5004770;28;20062;-72
2023/04/12 02:14:37;;;;;;;14.13;4.33;;;9.00;99.90;;;;;;4997545;28;20046;-73
2023/04/12 02:17:03;;;;;;;9.23;3.85;;;9.00;99.90;;;;;;5002194;28;20050;-72
2023/04/12 02:19:29;;;;;;;11.75;4.30;;;9.10;99.90;;;;;;5013871;28;20636;-72
2023/04/12 02:21:54;;;;;;;12.02;4.03;;;9.00;99.90;;;;;;5026970;28;20117;-73
2023/04/12 02:24:21;;;;;;;12.57;4.00;;;9.00;99.90;;;;;;5024224;28;20124;-73
2023/04/12 02:26:48;;;;;;;13.70;4.57;;;9.00;99.90;;;;;;5029801;28;20117;-72
2023/04/12 02:29:14;;;;;;;12.30;4.10;;;9.00;99.90;;;;;;5025068;28;20171;-72
2023/04/12 02:31:40;;;;;;;11.25;3.63;;;9.00;99.90;;;;;;5003570;28;20045;-73
2023/04/12 02:34:08;;;;;;;10.82;3.63;;;9.00;99.90;;;;;;5023550;28;20525;-73
2023/04/12 02:36:36;;;;;;;9.23;3.08;;;9.10;99.90;;;;;;5024899;28;20073;-72
2023/04/12 02:39:02;;;;;;;9.45;3.17;;;9.00;99.90;;;;;;5025838;28;20115;-73
2023/04/12 02:41:28;;;;;;;7.90;3.45;;;9.10;99.90;;;;;;5005410;28;20045;-73
2023/04/12 02:43:54;;;;;;;8.80;3.20;;;9.10;99.90;;;;;;5024338;28;20385;-72
2023/04/12 02:46:23;;;;;;;12.35;4.28;;;9.10;99.90;;;;;;5023686;28;20068;-73
2023/04/12 02:48:49;;;;;;;10.90;3.88;;;9.10;99.90;;;;;;4998815;28;20046;-72
2023/04/12 02:51:15;;;;;;;14.02;3.95;;;9.00;99.90;;;;;;5017811;28;20068;-73
2023/04/12 02:53:41;;;;;;;13.15;4.25;;;9.10;99.90;;;;;;5022882;28;20045;-73
2023/04/12 02:56:08;;;;;;;10.27;3.50;;;9.00;99.90;;;;;;5005977;28;20041;-73
2023/04/12 02:58:35;;;;;;;10.53;3.37;;;9.00;99.90;;;;;;5026550;28;20052;-73
2023/04/12 03:01:00;;;;;;;9.80;3.50;;;9.00;99.90;;;;;;5021722;28;20910;-73
2023/04/12 03:03:30;;;;;;;10.18;3.58;;;9.00;99.90;;;;;;4999028;28;20049;-73
2023/04/12 03:05:57;;;;;;;9.90;2.90;;;9.00;99.90;;;;;;5021367;28;20037;-72
2023/04/12 03:08:23;;;;;;;7.45;3.35;;;9.00;99.90;;;;;;5026510;28;20034;-73
2023/04/12 03:10:48;;;;;;;10.27;3.30;;;9.00;99.90;;;;;;5004694;28;20538;-72
2023/04/12 03:13:14;;;;;;;10.50;3.13;;;9.00;99.90;;;;;;5026291;28;20038;-73
2023/04/12 03:15:42;;;;;;;7.80;2.88;;;9.00;99.90;;;;;;5024790;28;20060;-73
2023/04/12 03:18:11;;;;;;;9.48;3.45;;;9.00;99.90;;;;;;5022823;28;20079;-72
2023/04/12 03:20:43;;;;;;;9.85;2.75;;;9.10;99.90;;;;;;5019597;28;20666;-73
2023/04/12 03:23:09;;;;;;;8.50;2.75;;;9.00;99.90;;;;;;5006724;28;20037;-73
2023/04/12 03:25:36;;;;;;;9.57;3.13;;;9.00;99.90;;;;;;5024203;28;20107;-72
2023/04/12 03:28:01;;;;;;;11.30;3.45;;;9.00;99.90;;;;;;5025124;28;20103;-72
2023/04/12 03:30:27;;;;;;;9.25;3.15;;;9.00;99.90;;;;;;5023587;28;20045;-73
2023/04/12 03:32:53;;;;;;;8.60;3.42;;;9.00;99.90;;;;;;5006032;28;20052;-73
2023/04/12 03:35:19;;;;;;;10.70;3.63;;;9.00;99.90;;;;;;5020158;28;20045;-73
2023/04/12 03:37:44;;;;;;;8.63;3.47;;;9.00;99.90;;;;;;5001801;28;20049;-73
2023/04/12 03:40:11;;;;;;;9.57;3.33;;;9.00;99.90;;;;;;5006808;28;20046;-73
2023/04/12 03:42:36;;;;;;;9.68;3.58;;;9.00;99.90;;;;;;5025458;28;20049;-73
2023/04/12 03:45:02;;;;;;;9.82;3.15;;;9.00;99.90;;;;;;5022917;28;20069;-73
2023/04/12 03:47:28;;;;;;;7.50;2.80;;;8.90;99.90;;;;;;5005735;28;20103;-73
2023/04/12 03:50:05;;;;;;;9.75;3.50;;;9.00;99.90;;;;;;5020996;28;20030;-73
2023/04/12 03:52:32;;;;;;;8.43;3.35;;;9.00;99.90;;;;;;5019477;28;20052;-72
2023/04/12 03:55:04;;;;;;;8.35;2.90;;;8.90;99.90;;;;;;5022928;28;20042;-72
2023/04/12 03:57:33;;;;;;;10.48;3.17;;;9.00;99.90;;;;;;5004303;28;20052;-73
2023/04/12 03:59:59;;;;;;;7.32;2.75;;;9.00;99.90;;;;;;5023765;28;20188;-72
2023/04/12 04:02:25;;;;;;;8.75;2.90;;;9.00;99.90;;;;;;5022592;28;20128;-72
2023/04/12 04:04:51;;;;;;;8.23;3.07;;;9.00;99.90;;;;;;5023685;28;20125;-72
2023/04/12 04:07:17;;;;;;;6.88;2.92;;;9.00;99.90;;;;;;5022473;28;20384;-72
2023/04/12 04:09:43;;;;;;;6.57;2.58;;;9.00;99.90;;;;;;5021048;28;20045;-72
2023/04/12 04:12:08;;;;;;;8.13;2.88;;;9.00;99.90;;;;;;5022201;28;20041;-72
2023/04/12 04:14:35;;;;;;;7.90;2.70;;;9.00;99.90;;;;;;5022276;28;20528;-72
2023/04/12 04:17:01;;;;;;;8.15;3.00;;;9.00;99.90;;;;;;5023342;28;20129;-72
2023/04/12 04:19:26;;;;;;;7.70;2.80;;;9.00;99.90;;;;;;5022550;28;20256;-72
2023/04/12 04:21:55;;;;;;;7.75;2.85;;;9.00;99.90;;;;;;5008303;28;20115;-73
2023/04/12 04:24:21;;;;;;;7.05;2.78;;;9.00;99.90;;;;;;5020229;28;20040;-72
2023/04/12 04:26:49;;;;;;;8.20;3.40;;;9.00;99.90;;;;;;5021024;28;20059;-72
2023/04/12 04:29:14;;;;;;;8.07;2.95;;;9.00;99.90;;;;;;5022767;28;20536;-72
2023/04/12 04:31:40;;;;;;;8.10;2.70;;;9.00;99.90;;;;;;5027134;28;20107;-72
2023/04/12 04:34:06;;;;;;;7.25;2.67;;;9.00;99.90;;;;;;5006305;28;20247;-72
2023/04/12 04:36:35;;;;;;;5.80;2.42;;;9.00;99.90;;;;;;5026235;28;20065;-72
2023/04/12 04:39:03;;;;;;;6.95;2.40;;;9.00;99.90;;;;;;5007028;28;20053;-72
2023/04/12 04:41:33;;;;;;;6.45;2.58;;;9.00;99.90;;;;;;5002303;28;20424;-72
2023/04/12 04:43:59;;;;;;;9.30;2.72;;;9.00;99.90;;;;;;5003787;28;20140;-72
2023/04/12 04:46:29;;;;;;;7.10;2.42;;;8.90;99.90;;;;;;5023755;28;20113;-72
2023/04/12 04:48:55;;;;;;;8.10;2.53;;;8.90;99.90;;;;;;5024450;28;20040;-72
2023/04/12 04:51:21;;;;;;;6.45;2.53;;;8.90;99.90;;;;;;5023868;28;20053;-72
2023/04/12 04:53:46;;;;;;;8.77;2.92;;;8.80;99.90;;;;;;5021080;28;20048;-72
2023/04/12 04:56:12;;;;;;;5.57;2.55;;;8.90;99.90;;;;;;5006579;28;20204;-72
2023/04/12 04:58:38;;;;;;;9.32;2.58;;;8.80;99.90;;;;;;5022147;28;20064;-72
2023/04/12 05:01:04;;;;;;;8.40;2.33;;;8.80;99.90;;;;;;5016137;28;20949;-72
2023/04/12 05:03:32;;;;;;;5.00;2.25;;;8.80;99.90;;;;;;5004390;28;20053;-71
2023/04/12 05:05:59;;;;;;;7.60;2.50;;;8.80;99.90;;;;;;5022952;28;20136;-72
2023/04/12 05:08:26;;;;;;;7.03;2.40;;;8.80;99.90;;;;;;5001544;28;20037;-72
2023/04/12 05:10:52;;;;;;;6.90;2.30;;;8.80;99.90;;;;;;5004652;28;20125;-72
2023/04/12 05:13:20;;;;;;;5.75;2.50;;;8.80;99.90;;;;;;5024022;28;20394;-71
2023/04/12 05:15:47;;;;;;;6.65;2.40;;;8.80;99.90;;;;;;5003276;28;20082;-72
2023/04/12 05:18:13;;;;;;;6.40;2.72;;;8.80;99.90;;;;;;5006650;28;20081;-72
2023/04/12 05:20:39;;;;;;;12.07;2.97;;;8.80;99.90;;;;;;5009183;28;20045;-72
2023/04/12 05:23:04;;;;;;;7.18;2.53;;;8.80;99.90;;;;;;5005348;28;20128;-72
2023/04/12 05:25:31;;;;;;;9.77;2.53;;;8.70;99.90;;;;;;5025422;28;20038;-72
2023/04/12 05:27:57;;;;;;;7.40;2.70;;;8.70;99.90;;;;;;5025238;28;20039;-72
2023/04/12 05:30:23;;;;;;;7.43;2.42;;;8.70;99.90;;;;;;4999860;28;20056;-72
2023/04/12 05:32:49;;;;;;;8.93;2.60;;;8.70;99.90;;;;;;5007161;28;20658;-72
2023/04/12 05:35:15;;;;;;;7.07;2.42;;;8.70;99.90;;;;;;5027290;28;20053;-72
2023/04/12 05:37:40;;;;;;;8.00;2.55;;;8.70;99.90;;;;;;5006943;28;20110;-72
2023/04/12 05:40:08;;;;;;;10.85;2.90;;;8.70;99.90;;;;;;5027092;28;20041;-72
2023/04/12 05:42:36;;;;;;;7.80;2.80;;;8.70;99.90;;;;;;5028162;28;20064;-72
2023/04/12 05:45:02;;;;;;;8.65;3.38;;;8.70;99.90;;;;;;5022952;28;20475;-72
2023/04/12 05:47:28;;;;;;;7.43;2.90;;;8.70;99.90;;;;;;5015210;28;20056;-71
2023/04/12 05:49:54;;;;;;;7.53;2.78;;;8.70;99.90;;;;;;5010322;28;20444;-72
2023/04/12 05:52:20;;;;;;;9.55;3.50;;;8.70;99.90;;;;;;5027264;28;20100;-72
2023/04/12 05:54:46;;;;;;;7.70;2.95;;;8.70;99.90;;;;;;5027482;28;20049;-72
2023/04/12 05:57:11;;;;;;;5.40;2.60;;;8.70;99.90;;;;;;5003949;28;20124;-72
2023/04/12 05:59:37;;;;;;;8.02;2.90;;;8.70;99.90;;;;;;5015557;28;20064;-71
2023/04/12 06:02:03;;;;;;;10.43;3.13;;;8.70;99.90;;;;;;5026662;28;20038;-72
2023/04/12 06:04:29;;;;;;;9.63;2.80;;;8.70;99.90;;;;;;5020823;28;20034;-72
2023/04/12 06:06:55;;;;;;;7.10;3.00;;;8.70;99.90;;;;;;5025590;28;20469;-72
2023/04/12 06:09:20;;;;;;;8.45;3.00;;;8.60;99.90;;;;;;5023371;28;20099;-72
2023/04/12 06:11:46;;;;;;;7.53;2.85;;;8.60;99.90;;;;;;5023886;28;20111;-72
2023/04/12 06:14:12;;;;;;;7.53;3.13;;;8.60;99.90;;;;;;5022038;28;20045;-72
2023/04/12 06:16:37;;;;;;;6.97;2.78;;;8.60;99.90;;;;;;5009198;28;20649;-71
2023/04/12 06:19:04;;;;;;;8.25;3.13;;;8.60;99.90;;;;;;5023417;28;20065;-71
2023/04/12 06:21:29;;;;;;;7.30;2.67;;;8.60;99.90;;;;;;5000993;28;20050;-71
2023/04/12 06:23:55;;;;;;;6.80;2.63;;;8.60;99.90;;;;;;5015433;28;20092;-72
2023/04/12 06:26:21;;;;;;;6.20;2.72;;;8.60;99.90;;;;;;5023899;28;20058;-72
2023/04/12 06:28:46;;;;;;;6.18;3.00;;;8.70;99.90;;;;;;5025871;28;20037;-71
2023/04/12 06:31:15;;;;;;;6.13;2.80;;;8.60;99.90;;;;;;5021180;28;20029;-72
2023/04/12 06:33:41;;;;;;;7.28;3.15;;;8.60;99.90;;;;;;5009978;28;20046;-72
2023/04/12 06:36:07;;;;;;;7.30;2.55;;;8.60;99.90;;;;;;5025103;28;20036;-72
2023/04/12 06:38:33;;;;;;;8.25;2.92;;;8.60;99.90;;;;;;5005349;28;20045;-71
2023/04/12 06:40:59;;;;;;;7.25;2.80;;;8.60;99.90;;;;;;5020040;28;20034;-72
2023/04/12 06:43:25;;;;;;;5.78;2.65;;;8.60;99.90;;;;;;5004923;28;20038;-72
2023/04/12 06:45:51;;;;;;;9.80;2.65;;;8.70;99.90;;;;;;4997928;28;20046;-71
2023/04/12 06:48:17;;;;;;;10.57;3.20;;;8.60;99.90;;;;;;5017109;28;20041;-72
2023/04/12 06:50:44;;;;;;;7.82;2.95;;;8.60;99.90;;;;;;5008505;28;20064;-71
2023/04/12 06:53:12;;;;;;;7.72;3.05;;;8.60;99.90;;;;;;5022625;28;20037;-72
2023/04/12 06:55:38;;;;;;;9.80;3.35;;;8.60;99.90;;;;;;5025981;28;20095;-72
2023/04/12 06:58:03;;;;;;;8.95;3.35;;;8.60;99.90;;;;;;5020088;28;20391;-72
2023/04/12 07:00:29;;;;;;;7.05;3.20;;;8.60;99.90;;;;;;5023307;28;20148;-72
2023/04/12 07:02:55;;;;;;;7.13;3.15;;;8.60;99.90;;;;;;4999391;28;20402;-72
2023/04/12 07:05:21;;;;;;;11.20;3.50;;;8.60;99.90;;;;;;5006601;28;20604;-72
2023/04/12 07:07:46;;;;;;;8.65;3.00;;;8.60;99.90;;;;;;5018209;28;20516;-72
2023/04/12 07:10:12;;;;;;;10.50;3.42;;;8.60;99.90;;;;;;5021742;28;20103;-72
2023/04/12 07:12:41;;;;;;;7.20;3.00;;;8.60;99.90;;;;;;5026084;28;20041;-72
2023/04/12 07:15:07;;;;;;;5.68;3.00;;;8.60;99.90;;;;;;5021878;28;20417;-72
2023/04/12 07:17:33;;;;;;;6.00;3.28;;;8.60;99.90;;;;;;5016827;28;20050;-71
2023/04/12 07:19:58;;;;;;;7.20;3.47;;;8.60;99.90;;;;;;5002062;28;20500;-71
2023/04/12 07:22:24;;;;;;;6.43;3.42;;;8.50;99.90;;;;;;5002632;28;20555;-73
2023/04/12 07:24:50;;;;;;;6.85;3.53;;;8.60;99.90;;;;;;5002099;28;20449;-73
2023/04/12 07:27:17;;;;;;;5.57;3.40;;;8.60;99.90;;;;;;5022491;28;20041;-74
2023/04/12 07:29:42;;;;;;;6.83;3.43;;;8.60;99.90;;;;;;5008631;28;20056;-73
2023/04/12 07:32:12;;;;;;;7.85;3.30;;;8.70;99.90;;;;;;5007674;28;20046;-72
2023/04/12 07:34:43;;;;;;;7.50;3.53;;;8.60;99.90;;;;;;5027691;28;20071;-71
2023/04/12 07:37:09;;;;;;;6.00;3.33;;;8.70;99.90;;;;;;5020313;28;20045;-73
2023/04/12 07:39:39;;;;;;;7.72;3.80;;;8.70;99.90;;;;;;5028330;28;20167;-73
2023/04/12 07:42:05;;;;;;;7.45;4.00;;;8.60;99.90;;;;;;5025411;28;20124;-70
2023/04/12 07:44:32;;;;;;;6.32;3.75;;;8.70;99.90;;;;;;5004292;28;20050;-73
2023/04/12 07:46:58;;;;;;;7.57;3.60;;;8.70;99.90;;;;;;5024639;28;20160;-71
2023/04/12 07:49:24;;;;;;;6.28;3.90;;;8.70;99.90;;;;;;5027073;28;20041;-71
2023/04/12 07:51:50;;;;;;;8.38;4.10;;;8.70;99.90;;;;;;5023047;28;20551;-72
2023/04/12 07:54:15;;;;;;;8.45;4.32;;;8.70;99.90;;;;;;5003471;28;20129;-71
2023/04/12 07:56:56;;;;;;;7.93;4.03;;;8.60;99.90;;;;;;5027406;28;20621;-71
2023/04/12 07:59:22;;;;;;;8.38;4.32;;;8.70;99.90;;;;;;5002022;28;20042;-71
2023/04/12 08:01:47;;;;;;;5.72;3.92;;;8.70;99.90;;;;;;5021375;28;20060;-72
2023/04/12 08:04:13;;;;;;;7.20;4.15;;;8.70;99.90;;;;;;5022875;28;20782;-73
2023/04/12 08:06:45;;;;;;;9.68;4.20;;;8.70;99.90;;;;;;5026857;28;20041;-72
2023/04/12 08:09:10;;;;;;;7.55;4.30;;;8.70;99.90;;;;;;5004980;28;20049;-72
2023/04/12 08:11:36;;;;;;;6.15;4.13;;;8.70;99.90;;;;;;5022883;28;20064;-73
2023/04/12 08:14:01;;;;;;;7.13;3.90;;;8.70;99.90;;;;;;5009825;28;20046;-72
2023/04/12 08:16:27;;;;;;;6.90;4.32;;;8.70;99.90;;;;;;5008237;28;20042;-71
2023/04/12 08:18:53;;;;;;;9.52;4.35;;;8.70;99.90;;;;;;5019250;28;20136;-71
2023/04/12 08:21:18;;;;;;;7.25;4.30;;;8.60;99.90;;;;;;5004608;28;20038;-71
2023/04/12 08:23:44;;;;;;;8.35;4.40;;;8.70;99.90;;;;;;5026631;28;20049;-72
2023/04/12 08:26:10;;;;;;;8.00;4.20;;;8.70;99.90;;;;;;5017823;28;20049;-72
2023/04/12 08:28:35;;;;;;;8.73;5.00;;;8.80;99.90;;;;;;5024811;28;20089;-71
2023/04/12 08:31:02;;;;;;;8.45;4.90;;;8.80;99.90;;;;;;5008647;28;20131;-72
2023/04/12 08:33:27;;;;;;;8.38;5.38;;;8.70;99.90;;;;;;5007023;28;21697;-71
2023/04/12 08:35:56;;;;;;;7.22;4.70;;;8.80;99.90;;;;;;5023427;28;20092;-71
2023/04/12 08:38:21;;;;;;;6.50;4.60;;;8.80;99.90;;;;;;4967718;28;20124;-71
2023/04/12 08:40:47;;;;;;;6.68;4.75;;;8.80;99.90;;;;;;4950342;28;20122;-71
2023/04/12 08:43:15;;;;;;;7.85;4.70;;;8.90;99.90;;;;;;4958798;28;20058;-71
2023/04/12 08:45:41;;;;;;;7.80;4.85;;;8.90;99.90;;;;;;4986131;28;20493;-71
2023/04/12 08:48:06;;;;;;;8.40;4.40;;;8.90;99.90;;;;;;4984972;28;20042;-71
2023/04/12 08:50:32;;;;;;;8.90;4.93;;;8.90;99.90;;;;;;4968190;28;20053;-72
2023/04/12 08:52:58;;;;;;;8.35;5.13;;;9.00;99.90;;;;;;4989191;28;20046;-72
2023/04/12 08:55:24;;;;;;;8.40;5.28;;;9.00;99.90;;;;;;4967171;28;20056;-71
2023/04/12 08:57:57;;;;;;;6.97;4.93;;;9.00;99.90;;;;;;4986986;28;20125;-72
2023/04/12 09:00:24;;;;;;;8.15;4.90;;;9.10;99.90;;;;;;4984247;28;20114;-72
2023/04/12 09:02:50;;;;;;;9.25;5.10;;;9.10;99.90;;;;;;4989356;28;20042;-73
2023/04/12 09:05:21;;;;;;;7.63;4.60;;;9.10;99.90;;;;;;4989114;28;20085;-73
2023/04/12 09:07:47;;;;;;;6.38;4.85;;;9.10;99.90;;;;;;4970244;28;20049;-71
2023/04/12 09:10:32;;;;;;;5.88;5.10;;;9.10;99.90;;;;;;4988127;28;20038;-72
2023/04/12 09:12:59;;;;;;;8.55;5.15;;;9.10;99.90;;;;;;4988762;28;20042;-72
2023/04/12 09:15:24;;;;;;;7.53;5.23;;;9.10;99.90;;;;;;4986396;28;20038;-72
2023/04/12 09:18:06;;;;;;;9.40;6.55;;;9.10;99.90;;;;;;4974885;28;21028;-73
2023/04/12 09:20:32;;;;;;;25.35;14.80;;;9.10;99.90;;;;;;4965120;28;20439;-71
2023/04/12 09:22:57;;;;;;;32.10;20.48;;;9.10;99.90;;;;;;4978778;28;20093;-72
2023/04/12 09:25:40;;;;;;;29.42;19.25;;;9.10;99.90;;;;;;4988548;28;20081;-73
2023/04/12 09:28:21;;;;;;;14.63;10.63;;;9.10;99.90;;;;;;4990504;28;20077;-73
2023/04/12 09:30:50;;;;;;;9.68;6.55;;;9.10;99.90;;;;;;4985785;28;20075;-72
2023/04/12 09:33:17;;;;;;;8.65;5.82;;;9.10;99.90;;;;;;4965365;28;20038;-73
2023/04/12 09:35:42;;;;;;;17.27;11.30;;;9.10;99.90;;;;;;4969475;28;20054;-73
2023/04/12 09:38:09;;;;;;;30.60;21.63;;;9.10;99.90;;;;;;4985347;28;20492;-75
2023/04/12 09:40:36;;;;;;;12.52;11.15;;;9.10;99.90;;;;;;4972100;28;20034;-74
2023/04/12 09:43:04;;;;;;;15.50;11.35;;;9.10;99.90;;;;;;4966392;28;20057;-73
2023/04/12 09:45:34;;;;;;;15.32;12.98;;;9.10;99.90;;;;;;4969442;28;20664;-72
2023/04/12 09:48:00;;;;;;;10.25;7.18;;;9.10;99.90;;;;;;4964317;28;20125;-71
2023/04/12 09:50:27;;;;;;;7.25;5.85;;;9.10;99.90;;;;;;4989785;28;20481;-72
2023/04/12 09:52:54;;;;;;;6.95;6.25;;;9.10;99.90;;;;;;4987871;28;20046;-71
2023/04/12 09:55:22;;;;;;;7.68;6.53;;;9.20;99.90;;;;;;4985493;28;20099;-72
2023/04/12 09:57:50;;;;;;;7.95;6.32;;;9.20;99.90;;;;;;4968998;28;20201;-71
2023/04/12 10:00:17;;;;;;;9.95;7.30;;;9.20;99.90;;;;;;4986304;28;20041;-71
2023/04/12 10:02:47;;;;;;;8.90;7.28;;;9.30;99.90;;;;;;4982378;28;20041;-77
2023/04/12 10:05:16;;;;;;;9.02;7.35;;;9.30;99.90;;;;;;4986394;28;20043;-73
2023/04/12 10:07:43;;;;;;;10.18;7.93;;;9.40;99.90;;;;;;4988088;28;20050;-75
2023/04/12 10:10:13;;;;;;;9.93;8.93;;;9.40;99.90;;;;;;4972742;28;20053;-74
2023/04/12 10:12:40;;;;;;;8.70;7.80;;;9.50;99.90;;;;;;4989751;28;20576;-72
2023/04/12 10:15:16;;;;;;;9.27;8.48;;;9.40;99.90;;;;;;4984285;28;20672;-72
2023/04/12 10:17:52;;;;;;;9.20;8.38;;;9.50;99.90;;;;;;4982580;28;20077;-71
2023/04/12 10:20:19;;;;;;;9.23;8.07;;;9.60;99.90;;;;;;4985634;28;20042;-75
2023/04/12 10:22:46;;;;;;;;;;;9.70;99.90;;;;;;4989945;28;20385;-74
2023/04/12 10:25:17;;;;;;;10.07;8.60;;;9.70;99.90;;;;;;4986664;28;20018;-72
2023/04/12 10:27:44;;;;;;;9.60;8.70;;;9.80;99.90;;;;;;4968563;28;20051;-70
2023/04/12 10:30:27;;;;;;;9.35;8.45;;;9.80;99.90;;;;;;4985776;28;20050;-72
2023/04/12 10:33:05;;;;;;;9.75;8.95;;;9.90;99.90;;;;;;4976439;28;20085;-72
2023/04/12 10:35:51;;;;;;;12.35;8.98;;;10.10;99.90;;;;;;4989406;28;20128;-74
2023/04/12 10:38:17;;;;;;;10.25;9.05;;;10.30;99.90;;;;;;4987209;28;20050;-73
2023/04/12 10:41:14;;;;;;;9.82;8.50;;;10.50;99.90;;;;;;4987231;28;20508;-73
2023/04/12 10:43:47;;;;;;;8.40;7.60;;;10.70;99.90;;;;;;4979618;28;20050;-76
2023/04/12 10:46:44;;;;;;;8.27;7.05;;;10.80;99.90;;;;;;4967177;28;20042;-72
2023/04/12 10:49:12;;;;;;;8.55;7.28;;;11.00;99.90;;;;;;4965977;28;20146;-80
2023/04/12 10:51:38;;;;;;;7.80;6.05;;;11.10;99.90;;;;;;4987971;28;20089;-74
2023/04/12 10:54:07;;;;;;;7.60;5.38;;;11.20;99.90;;;;;;4985024;28;20039;-74
2023/04/12 10:56:40;;;;;;;8.43;5.43;;;11.30;99.90;;;;;;4987652;28;20104;-72
2023/04/12 10:59:13;;;;;;;10.60;5.35;;;11.40;99.90;;;;;;4987338;28;20426;-77
2023/04/12 11:01:39;;;;;;;8.35;5.95;;;11.40;99.90;;;;;;4982574;28;20057;-71
2023/04/12 11:04:14;;;;;;;10.13;6.35;;;11.40;99.90;;;;;;4987081;28;20046;-75
2023/04/12 11:06:47;;;;;;;10.05;5.43;;;11.50;99.90;;;;;;4980083;28;20046;-75
2023/04/12 11:09:24;;;;;;;9.00;5.55;;;11.60;99.90;;;;;;4982588;28;20038;-75
2023/04/12 11:11:57;;;;;;;10.60;5.30;;;11.60;99.90;;;;;;4971095;28;20049;-76
2023/04/12 11:14:44;;;;;;;9.05;4.85;;;11.70;99.90;;;;;;4970834;28;20442;-75
2023/04/12 11:17:16;;;;;;;10.27;4.60;;;11.80;99.90;;;;;;4975523;28;20057;-75
2023/04/12 11:19:42;;;;;;;9.88;5.00;;;11.70;99.90;;;;;;4987654;28;20070;-74
2023/04/12 11:22:13;;;;;;;12.40;4.50;;;11.90;99.90;;;;;;4985532;28;20039;-75
2023/04/12 11:24:43;;;;;;;13.02;4.85;;;11.80;99.90;;;;;;4975432;28;20302;-76
2023/04/12 11:27:09;;;;;;;12.93;4.47;;;11.90;99.90;;;;;;4967152;28;20047;-77
2023/04/12 11:29:35;;;;;;;10.25;4.63;;;11.80;99.90;;;;;;4984582;28;20050;-77
2023/04/12 11:32:06;;;;;;;11.60;4.70;;;11.90;99.90;;;;;;4988127;28;20045;-77
2023/04/12 11:34:39;;;;;;;11.50;4.82;;;11.90;99.90;;;;;;4968743;28;20050;-78
2023/04/12 11:37:09;;;;;;;10.27;4.60;;;11.90;99.90;;;;;;4974285;28;20138;-77
2023/04/12 11:39:40;;;;;;;9.90;3.85;;;11.90;99.90;;;;;;4984815;28;20081;-77
2023/04/12 11:42:11;;;;;;;12.10;4.10;;;12.00;99.90;;;;;;4975372;28;20066;-78
2023/04/12 11:44:40;;;;;;;13.35;4.50;;;11.90;99.90;;;;;;4987422;28;20043;-75
2023/04/12 11:47:11;;;;;;;11.30;3.65;;;12.00;99.90;;;;;;4969481;28;20620;-81
2023/04/12 11:49:42;;;;;;;10.05;4.35;;;12.00;99.90;;;;;;4986310;28;20054;-73
2023/04/12 11:52:08;;;;;;;10.80;4.20;;;12.10;99.90;;;;;;4968626;28;20735;-73
2023/04/12 11:54:34;;;;;;;12.60;4.18;;;12.30;99.90;;;;;;4967212;28;20173;-73
2023/04/12 11:57:00;;;;;;;12.38;4.05;;;12.50;99.90;;;;;;4966433;28;20057;-76
2023/04/12 11:59:33;;;;;;;11.48;4.15;;;12.50;99.90;;;;;;4965196;28;20046;-71
2023/04/12 12:02:01;;;;;;;11.15;4.10;;;12.50;99.90;;;;;;4984556;28;20046;-72
2023/04/12 12:04:27;;;;;;;;;;;12.40;99.90;;;;;;4987980;28;20035;-73
2023/04/12 12:06:54;;;;;;;8.77;3.85;;;12.40;99.90;;;;;;4988655;28;19921;-72
2023/04/12 12:09:20;;;;;;;9.73;4.40;;;12.40;99.90;;;;;;4986734;28;20048;-72
2023/04/12 12:11:46;;;;;;;8.73;4.18;;;12.40;99.90;;;;;;4986034;28;20046;-74
2023/04/12 12:14:21;;;;;;;11.88;3.75;;;12.50;99.90;;;;;;4987219;28;20062;-75
2023/04/12 12:17:06;;;;;;;10.02;3.75;;;12.70;99.90;;;;;;4975081;28;20042;-76
2023/04/12 12:19:38;;;;;;;11.60;4.00;;;12.90;99.90;;;;;;4969377;28;20081;-77
2023/04/12 12:22:12;;;;;;;14.30;5.13;;;13.10;99.90;;;;;;4986178;28;20088;-68
2023/04/12 12:24:43;;;;;;;22.95;4.93;;;13.30;99.90;;;;;;4970218;28;20054;-74
2023/04/12 12:27:08;;;;;;;12.27;4.30;;;13.40;99.90;;;;;;4987704;28;20041;-73
2023/04/12 12:29:36;;;;;;;9.93;3.75;;;13.50;99.90;;;;;;4974606;28;20397;-73
2023/04/12 12:32:08;;;;;;;10.77;4.15;;;13.70;99.90;;;;;;4986550;28;20530;-78
2023/04/12 12:34:34;;;;;;;11.32;4.90;;;13.70;99.90;;;;;;4983230;28;20054;-72
2023/04/12 12:37:00;;;;;;;12.00;4.00;;;13.70;99.90;;;;;;4974537;28;20049;-71
2023/04/12 12:39:26;;;;;;;11.98;3.30;;;13.70;99.90;;;;;;4989928;28;20564;-68
2023/04/12 12:41:59;;;;;;;14.43;4.07;;;13.60;99.90;;;;;;4991750;28;20508;-70
2023/04/12 12:44:25;;;;;;;13.75;3.67;;;13.50;99.90;;;;;;4972475;28;20553;-71
2023/04/12 12:46:50;;;;;;;14.68;4.47;;;13.60;99.90;;;;;;4987927;28;20049;-70
2023/04/12 12:49:17;;;;;;;13.23;4.07;;;13.60;99.90;;;;;;4982301;28;20039;-69
2023/04/12 12:51:45;;;;;;;9.83;3.27;;;13.60;99.90;;;;;;4989070;28;20046;-69
2023/04/12 12:54:16;;;;;;;12.18;3.40;;;13.70;99.90;;;;;;4984375;28;20038;-71